sensor_id;sensor_type;location;lat;lon;timestamp;pressure;altitude;pressure_sealevel;temperature;humidity
11519;BME280;5816;48.228;14.116;2023-06-10T05:53:36;97733.66;;;16.42;100.00
11519;BME280;5816;48.228;14.116;2023-06-10T05:58:37;97733.53;;;16.58;100.00
11519;BME280;5816;48.228;14.116;2023-06-10T06:03:39;97726.91;;;16.61;100.00
11519;BME280;5816;48.228;14.116;2023-06-10T06:08:41;97728.44;;;17.09;100.00
11519;BME280;5816;48.228;14.116;2023-06-10T06:13:43;97716.06;;;17.44;100.00
11519;BME280;5816;48.228;14.116;2023-06-10T06:18:45;97730.00;;;17.56;100.00
11519;BME280;5816;48.228;14.116;2023-06-10T06:23:47;97721.91;;;17.71;100.00
11519;BME280;5816;48.228;14.116;2023-06-10T06:28:49;97715.84;;;17.84;100.00
11519;BME280;5816;48.228;14.116;2023-06-10T06:33:50;97718.84;;;17.89;100.00
11519;BME280;5816;48.228;14.116;2023-06-10T06:38:52;97732.41;;;18.40;100.00
11519;BME280;5816;48.228;14.116;2023-06-10T06:43:55;97736.22;;;19.03;100.00
11519;BME280;5816;48.228;14.116;2023-06-10T06:48:56;97734.00;;;19.34;100.00
11519;BME280;5816;48.228;14.116;2023-06-10T06:53:58;97744.19;;;19.32;100.00
11519;BME280;5816;48.228;14.116;2023-06-10T06:59:00;97739.94;;;19.23;100.00
11519;BME280;5816;48.228;14.116;2023-06-10T07:04:02;97745.34;;;19.44;100.00
11519;BME280;5816;48.228;14.116;2023-06-10T07:09:04;97748.88;;;19.45;100.00
11519;BME280;5816;48.228;14.116;2023-06-10T07:14:07;97745.91;;;19.40;100.00
11519;BME280;5816;48.228;14.116;2023-06-10T07:19:09;97749.63;;;19.88;100.00
11519;BME280;5816;48.228;14.116;2023-06-10T07:24:10;97747.25;;;20.07;100.00
11519;BME280;5816;48.228;14.116;2023-06-10T07:29:12;97751.16;;;19.97;100.00
11519;BME280;5816;48.228;14.116;2023-06-10T07:34:14;97755.19;;;20.08;100.00
11519;BME280;5816;48.228;14.116;2023-06-10T07:39:16;97754.06;;;20.37;100.00
11519;BME280;5816;48.228;14.116;2023-06-10T07:44:17;97746.72;;;20.92;100.00
11519;BME280;5816;48.228;14.116;2023-06-10T07:49:19;97761.38;;;20.91;99.39
11519;BME280;5816;48.228;14.116;2023-06-10T07:54:21;97764.34;;;20.96;96.96
11519;BME280;5816;48.228;14.116;2023-06-10T07:59:23;97767.75;;;21.38;97.65
11519;BME280;5816;48.228;14.116;2023-06-10T08:04:27;97760.81;;;21.55;93.39
11519;BME280;5816;48.228;14.116;2023-06-10T08:09:29;97759.81;;;21.63;91.94
11519;BME280;5816;48.228;14.116;2023-06-10T08:14:31;97757.66;;;21.25;92.98
11519;BME280;5816;48.228;14.116;2023-06-10T08:19:33;97763.75;;;21.80;90.62
11519;BME280;5816;48.228;14.116;2023-06-10T08:24:34;97766.00;;;22.03;93.08
11519;BME280;5816;48.228;14.116;2023-06-10T08:29:36;97759.59;;;22.49;88.16
11519;BME280;5816;48.228;14.116;2023-06-10T08:34:38;97753.84;;;22.26;87.61
11519;BME280;5816;48.228;14.116;2023-06-10T08:39:40;97756.06;;;22.87;85.24
11519;BME280;5816;48.228;14.116;2023-06-10T08:44:42;97762.81;;;22.78;85.96
11519;BME280;5816;48.228;14.116;2023-06-10T08:49:46;97770.41;;;22.76;82.86
11519;BME280;5816;48.228;14.116;2023-06-10T08:54:59;97761.94;;;23.97;80.12
11519;BME280;5816;48.228;14.116;2023-06-10T09:00:05;97766.84;;;24.13;79.51
11519;BME280;5816;48.228;14.116;2023-06-10T09:05:09;97767.72;;;23.07;78.38
11519;BME280;5816;48.228;14.116;2023-06-10T09:10:11;97772.78;;;23.60;79.98
11519;BME280;5816;48.228;14.116;2023-06-10T09:15:14;97765.47;;;22.97;76.86
11519;BME280;5816;48.228;14.116;2023-06-10T09:20:16;97762.84;;;22.71;78.09
11519;BME280;5816;48.228;14.116;2023-06-10T09:25:18;97751.00;;;23.78;78.07
11519;BME280;5816;48.228;14.116;2023-06-10T09:30:33;97758.16;;;24.16;76.42
11519;BME280;5816;48.228;14.116;2023-06-10T09:35:35;97746.69;;;23.64;76.46
11519;BME280;5816;48.228;14.116;2023-06-10T09:40:53;97746.50;;;23.34;76.72
11519;BME280;5816;48.228;14.116;2023-06-10T09:45:56;97745.94;;;23.25;76.18
11519;BME280;5816;48.228;14.116;2023-06-10T09:50:58;97743.59;;;23.54;74.10
11519;BME280;5816;48.228;14.116;2023-06-10T09:56:00;97752.16;;;23.39;74.87
11519;BME280;5816;48.228;14.116;2023-06-10T10:01:14;97744.06;;;24.56;72.48
11519;BME280;5816;48.228;14.116;2023-06-10T10:06:17;97753.22;;;23.88;73.05
11519;BME280;5816;48.228;14.116;2023-06-10T10:11:21;97736.88;;;23.82;74.83
11519;BME280;5816;48.228;14.116;2023-06-10T10:16:33;97748.59;;;23.64;76.16
11519;BME280;5816;48.228;14.116;2023-06-10T10:21:41;97745.78;;;23.70;72.76
11519;BME280;5816;48.228;14.116;2023-06-10T10:26:46;97747.25;;;23.23;72.90
11519;BME280;5816;48.228;14.116;2023-06-10T10:31:51;97747.06;;;23.43;73.29
11519;BME280;5816;48.228;14.116;2023-06-10T10:36:57;97737.63;;;22.76;81.08
11519;BME280;5816;48.228;14.116;2023-06-10T10:42:00;97726.22;;;22.85;82.58
11519;BME280;5816;48.228;14.116;2023-06-10T10:47:03;97714.06;;;22.88;82.70
11519;BME280;5816;48.228;14.116;2023-06-10T10:52:11;97721.59;;;24.29;80.07
11519;BME280;5816;48.228;14.116;2023-06-10T10:57:14;97724.53;;;24.34;75.08
11519;BME280;5816;48.228;14.116;2023-06-10T11:07:37;97708.63;;;25.80;70.10
11519;BME280;5816;48.228;14.116;2023-06-10T11:12:50;97723.78;;;25.17;70.57
11519;BME280;5816;48.228;14.116;2023-06-10T11:18:10;97727.34;;;24.76;69.20
11519;BME280;5816;48.228;14.116;2023-06-10T11:28:30;97697.31;;;21.48;86.89
11519;BME280;5816;48.228;14.116;2023-06-10T11:33:32;97733.94;;;20.79;94.72
11519;BME280;5816;48.228;14.116;2023-06-10T11:38:34;97751.44;;;20.50;100.00
11519;BME280;5816;48.228;14.116;2023-06-10T11:43:36;97744.06;;;19.62;99.56
11519;BME280;5816;48.228;14.116;2023-06-10T11:48:38;97747.81;;;19.39;100.00
11519;BME280;5816;48.228;14.116;2023-06-10T11:53:40;97759.94;;;19.65;100.00
11519;BME280;5816;48.228;14.116;2023-06-10T11:58:43;97744.16;;;19.82;100.00
11519;BME280;5816;48.228;14.116;2023-06-10T12:03:46;97735.63;;;19.85;100.00
11519;BME280;5816;48.228;14.116;2023-06-10T12:08:48;97731.69;;;19.94;100.00
11519;BME280;5816;48.228;14.116;2023-06-10T12:13:50;97727.16;;;20.08;100.00
11519;BME280;5816;48.228;14.116;2023-06-10T12:19:01;97728.53;;;21.19;100.00
11519;BME280;5816;48.228;14.116;2023-06-10T12:24:08;97715.94;;;21.84;99.52
11519;BME280;5816;48.228;14.116;2023-06-10T12:29:18;97717.78;;;22.93;96.75
11519;BME280;5816;48.228;14.116;2023-06-10T12:34:37;97708.13;;;23.22;92.13
11519;BME280;5816;48.228;14.116;2023-06-10T12:39:39;97707.53;;;23.89;88.22
11519;BME280;5816;48.228;14.116;2023-06-10T12:44:41;97718.75;;;23.37;89.77
11519;BME280;5816;48.228;14.116;2023-06-10T12:49:43;97719.09;;;22.91;89.40
11519;BME280;5816;48.228;14.116;2023-06-10T12:54:45;97717.16;;;21.95;93.72
11519;BME280;5816;48.228;14.116;2023-06-10T12:59:47;97724.78;;;21.60;99.19
11519;BME280;5816;48.228;14.116;2023-06-10T13:04:53;97724.13;;;21.25;100.00
11519;BME280;5816;48.228;14.116;2023-06-10T13:09:55;97720.72;;;20.70;100.00
11519;BME280;5816;48.228;14.116;2023-06-10T13:14:57;97720.72;;;20.70;100.00
11519;BME280;5816;48.228;14.116;2023-06-10T13:19:59;97722.34;;;20.51;100.00
11519;BME280;5816;48.228;14.116;2023-06-10T13:25:03;97719.78;;;20.43;100.00
11519;BME280;5816;48.228;14.116;2023-06-10T13:30:08;97725.47;;;20.48;100.00
11519;BME280;5816;48.228;14.116;2023-06-10T13:35:11;97725.13;;;20.23;100.00
11519;BME280;5816;48.228;14.116;2023-06-10T13:40:13;97728.66;;;20.51;100.00
11519;BME280;5816;48.228;14.116;2023-06-10T13:45:15;97731.13;;;20.46;100.00
11519;BME280;5816;48.228;14.116;2023-06-10T13:50:17;97696.63;;;20.06;100.00
11519;BME280;5816;48.228;14.116;2023-06-10T13:55:19;97726.41;;;20.27;100.00
11519;BME280;5816;48.228;14.116;2023-06-10T14:00:22;97723.03;;;20.18;100.00
11519;BME280;5816;48.228;14.116;2023-06-10T14:05:24;97727.56;;;20.05;100.00
11519;BME280;5816;48.228;14.116;2023-06-10T14:10:25;97724.97;;;19.83;100.00
11519;BME280;5816;48.228;14.116;2023-06-10T14:15:27;97732.88;;;19.78;100.00
11519;BME280;5816;48.228;14.116;2023-06-10T14:20:29;97719.53;;;19.83;100.00
11519;BME280;5816;48.228;14.116;2023-06-10T14:25:32;97720.47;;;20.04;100.00
11519;BME280;5816;48.228;14.116;2023-06-10T14:30:34;97717.97;;;20.09;100.00
11519;BME280;5816;48.228;14.116;2023-06-10T14:35:36;97711.78;;;20.28;100.00
11519;BME280;5816;48.228;14.116;2023-06-10T14:40:38;97712.31;;;20.51;100.00
11519;BME280;5816;48.228;14.116;2023-06-10T14:45:40;97711.81;;;20.35;100.00
11519;BME280;5816;48.228;14.116;2023-06-10T14:50:42;97706.06;;;20.71;100.00
11519;BME280;5816;48.228;14.116;2023-06-10T14:55:46;97714.72;;;20.94;100.00
11519;BME280;5816;48.228;14.116;2023-06-10T15:00:48;97721.66;;;21.56;100.00
11519;BME280;5816;48.228;14.116;2023-06-10T15:05:50;97729.31;;;22.12;100.00
11519;BME280;5816;48.228;14.116;2023-06-10T15:10:51;97725.16;;;22.55;100.00
11519;BME280;5816;48.228;14.116;2023-06-10T15:15:53;97727.78;;;22.30;100.00
11519;BME280;5816;48.228;14.116;2023-06-10T15:20:55;97732.22;;;22.69;100.00
11519;BME280;5816;48.228;14.116;2023-06-10T15:25:57;97724.13;;;22.81;98.50
11519;BME280;5816;48.228;14.116;2023-06-10T15:30:59;97725.91;;;22.68;98.21
11519;BME280;5816;48.228;14.116;2023-06-10T15:36:01;97718.63;;;22.94;99.29
11519;BME280;5816;48.228;14.116;2023-06-10T15:41:03;97738.03;;;22.34;98.11
11519;BME280;5816;48.228;14.116;2023-06-10T15:46:04;97741.72;;;21.82;100.00
11519;BME280;5816;48.228;14.116;2023-06-10T15:51:06;97742.63;;;21.36;100.00
11519;BME280;5816;48.228;14.116;2023-06-10T15:56:09;97749.31;;;21.40;100.00
11519;BME280;5816;48.228;14.116;2023-06-10T16:01:10;97761.41;;;21.11;99.44
11519;BME280;5816;48.228;14.116;2023-06-10T16:06:13;97762.22;;;20.98;100.00
11519;BME280;5816;48.228;14.116;2023-06-10T16:11:15;97761.16;;;20.73;100.00
11519;BME280;5816;48.228;14.116;2023-06-10T16:16:17;97776.06;;;21.03;100.00
11519;BME280;5816;48.228;14.116;2023-06-10T16:21:20;97774.16;;;20.97;100.00
11519;BME280;5816;48.228;14.116;2023-06-10T16:26:21;97777.81;;;20.57;100.00
11519;BME280;5816;48.228;14.116;2023-06-10T16:31:23;97778.88;;;20.21;100.00
11519;BME280;5816;48.228;14.116;2023-06-10T16:36:26;97777.38;;;20.12;100.00
11519;BME280;5816;48.228;14.116;2023-06-10T16:41:28;97781.69;;;19.65;100.00
11519;BME280;5816;48.228;14.116;2023-06-10T16:46:30;97774.03;;;19.54;100.00
11519;BME280;5816;48.228;14.116;2023-06-10T16:51:32;97767.16;;;19.79;100.00
11519;BME280;5816;48.228;14.116;2023-06-10T16:56:34;97757.16;;;19.86;100.00
11519;BME280;5816;48.228;14.116;2023-06-10T17:01:36;97763.00;;;19.83;100.00
11519;BME280;5816;48.228;14.116;2023-06-10T17:06:40;97769.22;;;19.77;100.00
11519;BME280;5816;48.228;14.116;2023-06-10T17:11:43;97770.81;;;19.65;100.00
11519;BME280;5816;48.228;14.116;2023-06-10T17:16:44;97770.44;;;19.68;100.00
11519;BME280;5816;48.228;14.116;2023-06-10T17:21:47;97772.81;;;19.56;100.00
11519;BME280;5816;48.228;14.116;2023-06-10T17:26:49;97787.22;;;19.57;100.00
11519;BME280;5816;48.228;14.116;2023-06-10T17:31:51;97797.34;;;19.63;100.00
11519;BME280;5816;48.228;14.116;2023-06-10T17:36:52;97790.50;;;19.74;100.00
11519;BME280;5816;48.228;14.116;2023-06-10T17:41:54;97796.31;;;19.21;100.00
11519;BME280;5816;48.228;14.116;2023-06-10T17:46:56;97797.34;;;19.63;100.00
11519;BME280;5816;48.228;14.116;2023-06-10T17:51:58;97801.88;;;19.34;100.00
11519;BME280;5816;48.228;14.116;2023-06-10T17:57:00;97780.53;;;19.31;100.00
11519;BME280;5816;48.228;14.116;2023-06-10T18:02:02;97811.56;;;19.43;100.00
11519;BME280;5816;48.228;14.116;2023-06-10T18:07:05;97774.97;;;18.75;100.00
11519;BME280;5816;48.228;14.116;2023-06-10T18:12:07;97811.44;;;19.09;100.00
11519;BME280;5816;48.228;14.116;2023-06-10T18:17:09;97803.03;;;19.25;100.00
11519;BME280;5816;48.228;14.116;2023-06-10T18:22:11;97812.34;;;19.37;100.00
11519;BME280;5816;48.228;14.116;2023-06-10T18:27:13;97814.66;;;19.19;100.00
11519;BME280;5816;48.228;14.116;2023-06-10T18:32:17;97821.91;;;19.12;100.00
11519;BME280;5816;48.228;14.116;2023-06-10T18:37:19;97832.38;;;18.94;100.00
11519;BME280;5816;48.228;14.116;2023-06-10T18:42:21;97828.81;;;18.93;100.00
11519;BME280;5816;48.228;14.116;2023-06-10T18:47:23;97841.56;;;18.63;100.00
11519;BME280;5816;48.228;14.116;2023-06-10T18:52:25;97845.22;;;18.70;100.00
11519;BME280;5816;48.228;14.116;2023-06-10T18:57:27;97841.56;;;18.63;100.00
11519;BME280;5816;48.228;14.116;2023-06-10T19:02:28;97846.91;;;18.56;100.00
11519;BME280;5816;48.228;14.116;2023-06-10T19:07:30;97850.03;;;18.39;100.00
11519;BME280;5816;48.228;14.116;2023-06-10T19:12:32;97854.59;;;18.38;100.00
11519;BME280;5816;48.228;14.116;2023-06-10T19:17:34;97859.38;;;18.51;100.00
11519;BME280;5816;48.228;14.116;2023-06-10T19:22:36;97866.94;;;18.55;100.00
11519;BME280;5816;48.228;14.116;2023-06-10T19:27:38;97887.50;;;18.35;100.00
11519;BME280;5816;48.228;14.116;2023-06-10T19:32:40;97891.34;;;18.55;100.00
11519;BME280;5816;48.228;14.116;2023-06-10T19:37:42;97902.00;;;18.27;100.00
11519;BME280;5816;48.228;14.116;2023-06-10T19:42:44;97894.25;;;18.24;100.00
11519;BME280;5816;48.228;14.116;2023-06-10T19:47:46;97893.69;;;18.44;100.00
11519;BME280;5816;48.228;14.116;2023-06-10T19:52:47;97900.91;;;18.37;100.00
11519;BME280;5816;48.228;14.116;2023-06-10T19:57:49;97907.81;;;18.24;100.00
11519;BME280;5816;48.228;14.116;2023-06-10T20:02:51;97908.53;;;18.18;100.00
11519;BME280;5816;48.228;14.116;2023-06-10T20:07:53;97911.16;;;18.26;100.00
11519;BME280;5816;48.228;14.116;2023-06-10T20:12:55;97906.88;;;18.17;100.00
11519;BME280;5816;48.228;14.116;2023-06-10T20:17:57;97902.00;;;18.27;100.00
11519;BME280;5816;48.228;14.116;2023-06-10T20:22:59;97910.22;;;18.19;100.00
11519;BME280;5816;48.228;14.116;2023-06-10T20:28:02;97909.09;;;18.28;100.00
11519;BME280;5816;48.228;14.116;2023-06-10T20:33:05;97913.41;;;18.23;100.00
11519;BME280;5816;48.228;14.116;2023-06-10T20:38:07;97916.38;;;18.13;100.00
11519;BME280;5816;48.228;14.116;2023-06-10T20:43:10;97903.34;;;17.94;100.00
11519;BME280;5816;48.228;14.116;2023-06-10T20:48:12;97906.28;;;18.07;100.00
11519;BME280;5816;48.228;14.116;2023-06-10T20:53:16;97917.25;;;17.76;100.00
11519;BME280;5816;48.228;14.116;2023-06-10T20:58:18;97924.88;;;17.95;100.00
11519;BME280;5816;48.228;14.116;2023-06-10T21:03:20;97906.97;;;17.86;100.00
